createdAt,value
2023-01-30T00:01:27.218Z,17.40
2023-01-30T00:03:55.940Z,19.50
2023-01-30T00:06:24.736Z,18.40
2023-01-30T00:08:52.789Z,22.10
2023-01-30T00:11:21.754Z,19.40
2023-01-30T00:13:50.806Z,20.50
2023-01-30T00:16:18.914Z,21.30
2023-01-30T00:18:47.342Z,17.40
2023-01-30T00:21:15.731Z,21.20
2023-01-30T00:23:44.621Z,20.20
2023-01-30T00:26:13.208Z,19.80
2023-01-30T00:28:41.738Z,21.90
2023-01-30T00:31:13.257Z,25.30
2023-01-30T00:33:41.801Z,20.20
2023-01-30T00:36:10.493Z,18.20
2023-01-30T00:38:39.153Z,16.10
2023-01-30T00:41:10.912Z,18.80
2023-01-30T00:43:57.999Z,19.00
2023-01-30T00:46:51.078Z,16.60
2023-01-30T00:49:19.351Z,14.10
2023-01-30T00:51:47.627Z,18.60
2023-01-30T00:54:16.100Z,18.20
2023-01-30T00:56:44.295Z,18.60
2023-01-30T00:59:12.381Z,16.90
2023-01-30T01:01:40.766Z,15.60
2023-01-30T01:04:10.673Z,17.50
2023-01-30T01:06:44.146Z,16.80
2023-01-30T01:09:12.113Z,17.20
2023-01-30T01:11:41.684Z,22.80
2023-01-30T01:14:09.874Z,17.50
2023-01-30T01:16:37.962Z,22.20
2023-01-30T01:19:06.237Z,22.10
2023-01-30T01:21:35.718Z,21.40
2023-01-30T01:24:06.805Z,17.70
2023-01-30T01:26:35.340Z,19.90
2023-01-30T01:29:04.055Z,21.50
2023-01-30T01:31:33.080Z,20.00
2023-01-30T01:34:01.287Z,21.00
2023-01-30T01:36:52.136Z,20.60
2023-01-30T01:39:17.682Z,18.50
2023-01-30T01:41:45.891Z,24.20
2023-01-30T04:15:02.627Z,20.70
2023-01-30T04:17:45.620Z,17.90
2023-01-30T04:20:20.656Z,21.00
2023-01-30T04:22:52.080Z,17.30
2023-01-30T04:25:21.568Z,19.70
2023-01-30T04:27:49.947Z,18.50
2023-01-30T04:30:24.292Z,19.80
2023-01-30T04:32:57.576Z,17.30
2023-01-30T04:35:26.102Z,16.40
2023-01-30T04:37:54.588Z,16.40
2023-01-30T04:40:27.333Z,18.90
2023-01-30T04:42:56.619Z,19.70
2023-01-30T04:45:36.788Z,19.70
2023-01-30T04:48:05.359Z,17.90
2023-01-30T04:50:33.606Z,16.00
2023-01-30T04:53:01.796Z,19.10
2023-01-30T04:55:29.940Z,15.30
2023-01-30T04:57:57.965Z,16.50
2023-01-30T05:00:27.376Z,18.40
2023-01-30T05:03:01.711Z,18.10
2023-01-30T05:05:30.274Z,16.70
2023-01-30T05:07:58.838Z,18.40
2023-01-30T05:10:26.897Z,18.40
2023-01-30T05:12:55.846Z,19.40
2023-01-30T05:15:23.963Z,18.10
2023-01-30T05:17:52.246Z,22.50
2023-01-30T05:20:20.667Z,23.00
2023-01-30T05:22:51.182Z,23.40
2023-01-30T05:25:19.741Z,21.30
2023-01-30T05:27:48.029Z,19.90
2023-01-30T05:30:17.357Z,20.60
2023-01-30T05:32:45.614Z,22.90
2023-01-30T05:35:13.915Z,28.10
2023-01-30T05:37:42.503Z,24.40
2023-01-30T05:40:12.318Z,26.00
2023-01-30T05:42:40.334Z,29.80
2023-01-30T05:45:10.703Z,28.90
2023-01-30T05:47:39.236Z,27.10
2023-01-30T05:50:08.451Z,31.60
2023-01-30T05:52:36.379Z,30.90
2023-01-30T05:55:06.028Z,32.90
2023-01-30T05:57:34.218Z,28.60
2023-01-30T06:00:02.715Z,26.00
2023-01-30T06:02:41.756Z,29.50
2023-01-30T06:05:09.974Z,26.70
2023-01-30T06:07:38.455Z,22.80
2023-01-30T06:10:06.734Z,27.80
2023-01-30T06:12:35.208Z,27.80
2023-01-30T06:15:03.792Z,27.90
2023-01-30T06:17:33.937Z,29.50
2023-01-30T06:20:02.137Z,29.90
2023-01-30T06:22:30.472Z,30.60
2023-01-30T06:24:58.565Z,28.10
2023-01-30T06:27:27.895Z,25.30
2023-01-30T06:29:57.850Z,29.60
2023-01-30T06:32:26.238Z,31.10
2023-01-30T06:34:54.816Z,28.60
2023-01-30T06:37:23.504Z,31.40
2023-01-30T06:39:51.790Z,33.00
2023-01-30T06:42:20.018Z,35.00
2023-01-30T06:44:47.957Z,35.40
2023-01-30T06:47:16.025Z,30.40
2023-01-30T06:49:43.914Z,39.20
2023-01-30T06:52:12.241Z,28.60
2023-01-30T06:54:40.322Z,26.00
2023-01-30T06:57:08.341Z,26.90
2023-01-30T06:59:36.515Z,28.80
2023-01-30T07:02:04.749Z,25.20
2023-01-30T07:04:33.033Z,27.30
2023-01-30T07:07:01.053Z,29.50
2023-01-30T07:09:29.524Z,28.90
2023-01-30T07:11:57.810Z,24.50
2023-01-30T07:14:26.212Z,26.90
2023-01-30T07:16:54.719Z,28.30
2023-01-30T07:19:24.575Z,26.60
2023-01-30T07:21:52.587Z,30.10
2023-01-30T07:24:20.590Z,26.10
2023-01-30T07:26:49.216Z,26.70
2023-01-30T07:29:17.303Z,26.70
2023-01-30T07:31:45.352Z,22.60
2023-01-30T07:34:13.338Z,28.30
2023-01-30T07:36:41.319Z,24.70
2023-01-30T07:39:09.798Z,29.30
2023-01-30T07:41:38.367Z,25.60
2023-01-30T07:44:12.691Z,29.10
2023-01-30T07:46:40.814Z,32.70
2023-01-30T07:49:09.566Z,31.40
2023-01-30T07:51:37.598Z,26.90
2023-01-30T07:54:05.809Z,25.10
2023-01-30T07:56:35.511Z,29.70
2023-01-30T07:59:05.736Z,28.70
2023-01-30T08:01:33.741Z,32.00
2023-01-30T08:04:01.804Z,27.70
2023-01-30T08:06:30.967Z,31.70
2023-01-30T08:08:59.471Z,32.70
2023-01-30T08:11:28.864Z,21.60
2023-01-30T08:13:57.869Z,34.50
2023-01-30T08:16:26.300Z,34.60
2023-01-30T08:18:54.714Z,30.10
2023-01-30T08:21:22.881Z,28.60
2023-01-30T08:23:51.016Z,29.30
2023-01-30T08:26:19.186Z,28.30
2023-01-30T08:28:47.242Z,27.00
2023-01-30T08:31:15.759Z,24.10
2023-01-30T08:33:44.501Z,29.60
2023-01-30T08:36:12.570Z,35.00
2023-01-30T08:38:40.734Z,30.30
2023-01-30T08:41:09.761Z,29.90
2023-01-30T08:43:37.986Z,28.60
2023-01-30T08:46:06.046Z,31.90
2023-01-30T08:48:47.677Z,25.70
2023-01-30T08:51:17.127Z,32.50
2023-01-30T08:53:45.887Z,22.20
2023-01-30T08:56:13.957Z,31.10
2023-01-30T08:58:43.913Z,28.60
2023-01-30T09:01:12.133Z,27.80
2023-01-30T09:03:40.347Z,24.60
2023-01-30T09:06:08.890Z,34.30
2023-01-30T09:08:38.062Z,26.00
2023-01-30T09:13:43.370Z,33.60
2023-01-30T09:16:12.033Z,31.50
2023-01-30T09:18:42.015Z,22.40
2023-01-30T09:21:11.080Z,26.30
2023-01-30T09:23:39.370Z,24.40
2023-01-30T09:26:07.668Z,28.50
2023-01-30T09:28:35.776Z,26.50
2023-01-30T09:31:04.349Z,24.70
2023-01-30T09:33:34.132Z,28.70
2023-01-30T09:36:02.299Z,23.90
2023-01-30T09:38:30.397Z,25.90
2023-01-30T09:40:59.777Z,21.20
2023-01-30T09:44:05.330Z,16.00
2023-01-30T13:49:30.756Z,28.00
2023-01-30T13:52:10.290Z,23.30
2023-01-30T13:54:59.552Z,22.60
2023-01-30T13:57:47.829Z,28.00
2023-01-30T14:00:29.024Z,27.10
2023-01-30T14:03:06.081Z,26.50
2023-01-30T14:06:00.720Z,38.80
2023-01-30T14:08:50.477Z,35.40
2023-01-30T14:11:39.745Z,25.30
2023-01-30T14:14:22.839Z,27.50
2023-01-30T14:17:11.287Z,26.40
2023-01-30T14:19:43.500Z,25.40
2023-01-30T14:22:23.249Z,26.30
2023-01-30T14:25:23.163Z,25.60
2023-01-30T14:27:52.967Z,21.30
2023-01-30T14:30:43.259Z,26.50
2023-01-30T14:33:20.890Z,33.30
2023-01-30T14:35:59.091Z,26.90
2023-01-30T14:38:31.194Z,33.70
2023-01-30T14:40:59.596Z,32.50
2023-01-30T14:43:36.998Z,30.00
2023-01-30T14:46:08.616Z,27.80
2023-01-30T14:48:44.972Z,28.20
2023-01-30T14:51:20.833Z,39.10
2023-01-30T14:53:52.604Z,26.70
2023-01-30T14:56:36.652Z,34.90
2023-01-30T14:59:17.357Z,34.50
2023-01-30T15:02:04.616Z,30.20
2023-01-30T15:04:38.929Z,28.10
2023-01-30T15:07:16.788Z,34.20
2023-01-30T15:10:23.775Z,35.00
2023-01-30T15:13:19.173Z,28.80
2023-01-30T15:16:16.214Z,35.00
2023-01-30T15:19:03.980Z,39.50
2023-01-30T15:21:48.612Z,29.60
2023-01-30T15:24:21.214Z,28.60
2023-01-30T15:27:10.903Z,22.90
2023-01-30T15:30:04.033Z,25.80
2023-01-30T15:32:32.799Z,28.40
2023-01-30T15:35:21.875Z,36.20
2023-01-30T15:37:54.435Z,37.10
2023-01-30T15:40:27.655Z,37.30
2023-01-30T15:43:01.898Z,36.20
2023-01-30T15:45:35.915Z,28.70
2023-01-30T15:48:04.044Z,41.50
2023-01-30T15:50:32.536Z,49.70
2023-01-30T15:53:00.504Z,36.70
2023-01-30T15:55:32.684Z,44.90
2023-01-30T15:58:06.183Z,42.70
2023-01-30T16:00:36.422Z,34.90
2023-01-30T16:03:05.536Z,34.20
2023-01-30T16:05:33.493Z,25.00
2023-01-30T16:08:10.649Z,24.00
2023-01-30T16:10:44.702Z,26.20
2023-01-30T16:13:13.605Z,35.40
2023-01-30T16:15:46.419Z,29.60
2023-01-30T16:18:35.488Z,27.20
2023-01-30T16:21:36.799Z,20.40
2023-01-30T16:24:25.012Z,27.00
2023-01-30T16:26:59.327Z,28.00
2023-01-30T16:29:30.280Z,25.40
2023-01-30T16:31:58.779Z,24.40
2023-01-30T16:34:37.181Z,24.30
2023-01-30T16:37:07.855Z,25.30
2023-01-30T16:39:37.040Z,25.80
2023-01-30T16:42:28.417Z,32.80
2023-01-30T16:45:40.245Z,32.80
2023-01-30T16:48:18.375Z,24.50
2023-01-30T16:50:48.112Z,25.60
2023-01-30T16:53:18.821Z,28.90
2023-01-30T16:56:05.783Z,27.30
2023-01-30T16:58:35.989Z,33.00
2023-01-30T17:01:07.965Z,30.70
2023-01-30T17:03:38.444Z,27.30
2023-01-30T17:06:16.373Z,34.30
2023-01-30T17:08:53.981Z,24.90
2023-01-30T17:11:29.107Z,26.00
2023-01-30T17:14:26.310Z,25.30
2023-01-30T17:17:00.920Z,27.50
2023-01-30T17:19:29.378Z,29.00
2023-01-30T17:21:58.660Z,29.40
2023-01-30T17:24:27.254Z,22.40
2023-01-30T17:27:00.361Z,24.20
2023-01-30T17:29:41.909Z,25.60
2023-01-30T17:32:11.861Z,25.70
2023-01-30T17:34:41.714Z,27.10
2023-01-30T17:37:24.169Z,25.10
2023-01-30T17:39:52.643Z,25.00
2023-01-30T17:42:22.512Z,24.70
2023-01-30T17:44:50.883Z,23.50
2023-01-30T17:47:18.793Z,27.00
2023-01-30T17:49:48.552Z,25.20
2023-01-30T17:52:18.990Z,23.90
2023-01-30T22:08:58.451Z,67.30
2023-01-30T22:11:42.264Z,63.50
2023-01-30T22:14:12.581Z,61.30
2023-01-30T22:16:39.793Z,65.00
2023-01-30T22:19:06.426Z,61.10
2023-01-30T22:21:35.358Z,62.70
2023-01-30T22:24:03.019Z,68.10
2023-01-30T22:26:29.850Z,60.90
2023-01-30T22:28:58.061Z,68.60
2023-01-30T22:31:26.075Z,66.80
2023-01-30T22:33:54.915Z,65.70
2023-01-30T22:36:26.505Z,65.70
2023-01-30T22:38:53.266Z,70.60
2023-01-30T22:41:21.569Z,65.30
2023-01-30T22:43:55.825Z,63.20
2023-01-30T22:46:24.502Z,65.40
2023-01-30T22:48:51.429Z,63.50
2023-01-30T22:51:25.694Z,63.80
2023-01-30T22:53:54.525Z,67.80
2023-01-30T22:56:22.921Z,76.00
2023-01-30T22:58:49.646Z,65.30
2023-01-30T23:01:20.913Z,61.30
2023-01-30T23:03:52.586Z,67.10
2023-01-30T23:06:19.215Z,67.50
2023-01-30T23:08:47.559Z,64.60
2023-01-30T23:11:22.112Z,69.40
2023-01-30T23:13:50.356Z,71.00
2023-01-30T23:16:18.297Z,71.00
2023-01-30T23:19:01.002Z,68.80
2023-01-30T23:21:30.962Z,75.50
2023-01-30T23:24:02.101Z,53.80
2023-01-30T23:26:33.786Z,63.50
2023-01-30T23:29:02.102Z,72.90
2023-01-30T23:31:31.742Z,69.90
2023-01-30T23:34:01.052Z,66.70
2023-01-30T23:36:27.990Z,68.90
2023-01-30T23:38:55.558Z,74.70
2023-01-30T23:41:24.243Z,69.80
2023-01-30T23:43:51.236Z,70.80
2023-01-30T23:46:24.705Z,72.60
